Time;durP1;ratioP1;P1;durP2;ratioP2;P2;SDS_P1;SDS_P2;PMS_P1;PMS_P2;Temp;Humidity;BMP_temperature;BMP_pressure;BME280_temperature;BME280_humidity;BME280_pressure;Samples;Min_cycle;Max_cycle;Signal;HPM_P1;HPM_P2
2023/05/21 00:01:04;;;;;;;99.78;90.65;;;;;;;13.25;100.00;101031.69;5025612;28;20056;-75
2023/05/21 00:03:32;;;;;;;90.00;81.22;;;;;;;13.31;100.00;101032.69;5013469;28;20085;-75
2023/05/21 00:06:00;;;;;;;97.43;88.65;;;;;;;13.24;100.00;101027.38;5024478;28;20107;-75
2023/05/21 00:08:27;;;;;;;83.78;75.28;;;;;;;13.23;100.00;101028.41;5016045;28;20046;-75
2023/05/21 00:10:55;;;;;;;90.72;82.03;;;;;;;13.35;100.00;101031.22;5018376;28;20056;-75
2023/05/21 00:13:22;;;;;;;99.43;89.28;;;;;;;13.30;100.00;101031.88;5022739;28;20045;-75
2023/05/21 00:15:49;;;;;;;100.18;91.18;;;;;;;13.31;100.00;101036.16;5021560;28;20052;-75
2023/05/21 00:18:16;;;;;;;98.05;88.85;;;;;;;13.41;100.00;101035.72;5023014;28;20053;-74
2023/05/21 00:20:42;;;;;;;106.90;97.43;;;;;;;12.66;100.00;101022.16;5024774;28;20050;-75
2023/05/21 00:23:10;;;;;;;92.28;83.18;;;;;;;12.72;100.00;101024.78;5020790;28;20049;-75
2023/05/21 00:25:36;;;;;;;97.10;87.05;;;;;;;12.94;100.00;101027.97;5021489;28;20584;-74
2023/05/21 00:28:05;;;;;;;101.30;91.40;;;;;;;13.12;100.00;101027.22;5022076;28;20441;-75
2023/05/21 00:30:32;;;;;;;97.50;88.00;;;;;;;13.18;100.00;101025.56;5024248;28;20425;-75
2023/05/21 00:33:01;;;;;;;96.65;87.68;;;;;;;12.94;100.00;101017.28;5021136;28;20050;-75
2023/05/21 00:35:28;;;;;;;88.25;79.05;;;;;;;13.10;100.00;101017.81;5023762;28;20056;-75
2023/05/21 00:37:55;;;;;;;122.00;111.40;;;;;;;13.16;100.00;101012.47;5023364;28;20045;-74
2023/05/21 00:40:21;;;;;;;100.05;90.25;;;;;;;13.13;100.00;101006.72;5012956;28;20058;-75
2023/05/21 00:42:48;;;;;;;98.38;89.07;;;;;;;13.16;100.00;101004.47;5012833;28;20552;-75
2023/05/21 00:45:16;;;;;;;123.50;112.60;;;;;;;13.21;100.00;101001.94;5014971;28;20057;-75
2023/05/21 00:47:47;;;;;;;110.28;100.32;;;;;;;13.15;100.00;100999.31;5023783;28;20053;-75
2023/05/21 00:50:15;;;;;;;111.50;101.43;;;;;;;13.23;100.00;100999.06;5013634;28;20103;-74
2023/05/21 00:52:44;;;;;;;108.25;98.85;;;;;;;13.02;100.00;101000.22;5022532;28;20513;-75
2023/05/21 00:55:12;;;;;;;95.80;86.80;;;;;;;13.24;100.00;100998.03;5023460;28;20509;-75
2023/05/21 00:57:40;;;;;;;111.65;102.07;;;;;;;13.20;100.00;100996.84;5020775;28;20539;-75
2023/05/21 01:00:09;;;;;;;99.95;90.45;;;;;;;13.21;100.00;100988.59;5025535;28;20069;-75
2023/05/21 01:02:38;;;;;;;167.38;153.57;;;;;;;13.21;100.00;100983.25;5023005;28;20547;-75
2023/05/21 01:05:05;;;;;;;91.70;82.90;;;;;;;13.18;100.00;100985.56;5019487;28;20048;-75
2023/05/21 01:07:34;;;;;;;113.00;102.70;;;;;;;12.97;100.00;100986.72;5029728;28;20103;-75
2023/05/21 01:10:03;;;;;;;92.30;83.45;;;;;;;13.03;100.00;100978.69;5022276;28;20103;-75
2023/05/21 01:12:32;;;;;;;101.57;91.85;;;;;;;13.08;100.00;100983.38;5026200;28;20115;-75
2023/05/21 01:15:01;;;;;;;90.40;81.70;;;;;;;13.00;100.00;100981.78;5020897;28;20132;-75
2023/05/21 01:17:30;;;;;;;107.05;97.40;;;;;;;13.08;100.00;100980.72;5012069;28;20128;-74
2023/05/21 01:19:58;;;;;;;102.75;93.53;;;;;;;13.11;100.00;100980.28;5022855;28;20061;-74
2023/05/21 01:22:28;;;;;;;119.47;108.93;;;;;;;13.15;100.00;100981.47;5023509;28;20060;-75
2023/05/21 01:24:57;;;;;;;105.28;95.78;;;;;;;12.99;100.00;100979.34;5017252;28;20053;-75
2023/05/21 01:27:24;;;;;;;168.95;155.70;;;;;;;13.11;100.00;100982.94;5025553;28;20053;-73
2023/05/21 01:29:50;;;;;;;131.32;120.93;;;;;;;13.13;100.00;100988.88;5021783;28;20441;-73
2023/05/21 01:32:27;;;;;;;105.75;96.25;;;;;;;13.10;100.00;100984.00;5020693;28;20053;-74
2023/05/21 01:35:00;;;;;;;97.63;88.35;;;;;;;12.90;100.00;100981.44;5020394;28;20045;-76
2023/05/21 01:37:32;;;;;;;92.95;84.13;;;;;;;12.96;100.00;100983.25;5020526;28;20579;-75
2023/05/21 01:40:08;;;;;;;115.43;105.85;;;;;;;13.21;100.00;100977.94;5022968;28;20505;-75
2023/05/21 01:42:36;;;;;;;99.18;89.78;;;;;;;12.78;100.00;100973.31;5018682;28;20056;-75
2023/05/21 01:45:06;;;;;;;97.53;88.00;;;;;;;12.96;100.00;100963.78;5020154;28;20099;-75
2023/05/21 01:47:34;;;;;;;103.47;93.78;;;;;;;13.17;100.00;100968.75;5021635;28;20785;-76
2023/05/21 01:50:02;;;;;;;92.80;83.78;;;;;;;12.96;100.00;100964.59;5021491;28;20529;-75
2023/05/21 01:52:29;;;;;;;97.53;88.18;;;;;;;12.92;100.00;100957.22;5026457;28;20050;-76
2023/05/21 01:54:56;;;;;;;90.57;81.68;;;;;;;12.99;100.00;100964.16;5018738;28;20046;-75
2023/05/21 01:57:25;;;;;;;91.07;81.85;;;;;;;12.83;100.00;100959.34;5025162;28;20049;-76
2023/05/21 01:59:53;;;;;;;101.13;91.70;;;;;;;12.79;100.00;100960.78;5025227;28;20108;-75
2023/05/21 02:02:20;;;;;;;86.82;78.40;;;;;;;12.63;100.00;100969.28;5020733;28;20049;-76
2023/05/21 02:04:48;;;;;;;101.88;92.40;;;;;;;12.49;100.00;100961.34;5024927;28;20050;-75
2023/05/21 02:07:17;;;;;;;105.50;95.93;;;;;;;12.45;100.00;100959.34;5021548;28;20429;-75
2023/05/21 02:09:44;;;;;;;97.00;87.78;;;;;;;12.31;100.00;100958.56;5018993;28;20050;-75
2023/05/21 02:12:10;;;;;;;102.55;92.90;;;;;;;12.09;100.00;100963.38;5022215;28;20050;-75
2023/05/21 02:14:39;;;;;;;122.13;111.10;;;;;;;12.27;100.00;100960.03;5021499;28;20046;-75
2023/05/21 02:17:06;;;;;;;112.45;102.55;;;;;;;12.30;100.00;100963.09;5022028;28;20461;-75
2023/05/21 02:19:33;;;;;;;120.22;110.10;;;;;;;11.63;100.00;100965.06;5022381;28;20056;-75
2023/05/21 02:22:00;;;;;;;116.35;103.68;;;;;;;11.88;100.00;100957.28;5022389;28;20053;-76
2023/05/21 02:24:28;;;;;;;114.20;102.88;;;;;;;11.67;100.00;100963.63;5017777;28;20513;-74
2023/05/21 02:26:55;;;;;;;118.30;107.13;;;;;;;11.87;100.00;100965.47;5022772;28;20143;-75
2023/05/21 02:29:21;;;;;;;114.68;104.05;;;;;;;11.83;100.00;100961.56;5019471;28;20053;-75
2023/05/21 02:31:50;;;;;;;108.50;98.10;;;;;;;11.69;100.00;100948.28;5019428;28;20068;-75
2023/05/21 02:34:19;;;;;;;100.57;91.28;;;;;;;11.55;100.00;100946.66;5017250;28;20042;-75
2023/05/21 02:36:47;;;;;;;88.07;79.72;;;;;;;11.38;100.00;100948.94;5017472;28;20050;-75
2023/05/21 02:39:14;;;;;;;87.70;78.68;;;;;;;11.33;100.00;100946.06;5020233;28;20537;-75
2023/05/21 02:41:40;;;;;;;80.35;71.90;;;;;;;11.29;100.00;100952.81;5020077;28;20045;-75
2023/05/21 02:44:07;;;;;;;73.20;65.55;;;;;;;11.26;100.00;100949.75;5022801;28;20041;-75
2023/05/21 02:46:34;;;;;;;74.55;66.95;;;;;;;11.37;100.00;100947.28;5019258;28;20068;-75
2023/05/21 02:49:05;;;;;;;74.75;67.15;;;;;;;10.88;100.00;100945.00;5019277;28;20069;-75
2023/05/21 02:51:32;;;;;;;74.82;67.15;;;;;;;10.95;100.00;100948.50;5020141;28;20107;-75
2023/05/21 02:53:58;;;;;;;78.72;70.43;;;;;;;11.09;100.00;100952.00;5019436;28;20050;-74
2023/05/21 02:56:25;;;;;;;77.32;69.50;;;;;;;11.34;100.00;100954.84;5021294;28;20604;-75
2023/05/21 02:58:53;;;;;;;74.35;66.55;;;;;;;11.36;100.00;100958.94;5022844;28;20057;-75
2023/05/21 03:01:20;;;;;;;74.75;67.05;;;;;;;11.13;100.00;100966.50;5022074;28;20107;-76
2023/05/21 03:03:46;;;;;;;73.70;66.13;;;;;;;11.31;100.00;100976.53;5011652;28;20694;-75
2023/05/21 03:06:15;;;;;;;72.90;65.68;;;;;;;10.86;100.00;100971.81;5020074;28;20057;-75
2023/05/21 03:08:42;;;;;;;77.25;69.07;;;;;;;11.13;100.00;100971.81;5021112;28;20064;-75
2023/05/21 03:11:08;;;;;;;82.28;74.00;;;;;;;11.14;100.00;100976.13;5021742;28;20053;-75
2023/05/21 03:13:35;;;;;;;78.65;70.80;;;;;;;11.46;100.00;100970.00;5015485;28;20053;-75
2023/05/21 03:16:02;;;;;;;81.85;73.72;;;;;;;11.29;100.00;100973.28;5023938;28;20049;-75
2023/05/21 03:18:29;;;;;;;83.00;75.03;;;;;;;11.44;100.00;100966.72;5019475;28;20050;-75
2023/05/21 03:20:57;;;;;;;82.47;74.63;;;;;;;11.62;100.00;100968.78;5022575;28;20056;-75
2023/05/21 03:23:26;;;;;;;85.85;77.63;;;;;;;11.70;100.00;100968.53;5012668;28;20077;-75
2023/05/21 03:25:53;;;;;;;82.25;74.53;;;;;;;11.76;100.00;100977.53;5021149;28;20437;-75
2023/05/21 03:28:20;;;;;;;82.30;74.18;;;;;;;11.67;100.00;100978.78;5019656;28;20045;-75
2023/05/21 03:30:48;;;;;;;84.53;76.40;;;;;;;11.88;100.00;100978.56;5019675;28;20046;-75
2023/05/21 03:33:15;;;;;;;79.32;71.82;;;;;;;11.70;100.00;100987.16;5014185;28;20050;-74
2023/05/21 03:35:42;;;;;;;80.85;73.35;;;;;;;11.45;100.00;100986.97;5017948;28;20060;-75
2023/05/21 03:38:09;;;;;;;81.43;73.95;;;;;;;11.44;100.00;100989.84;5017744;28;20046;-75
2023/05/21 03:40:37;;;;;;;83.05;75.53;;;;;;;11.55;100.00;100996.38;5018415;28;20054;-74
2023/05/21 03:43:04;;;;;;;81.20;73.47;;;;;;;11.55;100.00;100985.75;5023359;28;20053;-75
2023/05/21 03:45:31;;;;;;;78.82;71.65;;;;;;;11.75;100.00;100989.22;5014345;28;20053;-76
2023/05/21 03:47:58;;;;;;;87.70;79.90;;;;;;;11.88;100.00;100991.88;5020959;28;20042;-75
2023/05/21 03:50:25;;;;;;;81.95;74.63;;;;;;;11.97;100.00;100989.00;5019157;28;20481;-75
2023/05/21 03:52:51;;;;;;;79.90;72.60;;;;;;;11.99;100.00;100987.78;5019593;28;20049;-75
2023/05/21 03:55:18;;;;;;;81.43;74.07;;;;;;;12.20;100.00;101002.66;5020743;28;20421;-75
2023/05/21 03:57:47;;;;;;;80.43;72.72;;;;;;;12.32;100.00;100995.66;5021302;28;20061;-75
2023/05/21 04:00:14;;;;;;;85.25;77.35;;;;;;;12.32;100.00;100997.50;5015941;28;20057;-74
2023/05/21 04:02:41;;;;;;;87.60;79.75;;;;;;;12.46;100.00;100993.75;5019400;28;20571;-75
2023/05/21 04:05:08;;;;;;;85.72;77.93;;;;;;;12.72;100.00;100992.81;5021088;28;20049;-74
2023/05/21 04:07:37;;;;;;;82.90;75.15;;;;;;;12.79;100.00;100996.25;5019504;28;20054;-74
2023/05/21 04:10:04;;;;;;;83.00;75.35;;;;;;;13.05;100.00;100999.81;5019146;28;20048;-75
2023/05/21 04:12:31;;;;;;;81.50;73.90;;;;;;;13.10;100.00;100994.66;5023074;28;20050;-75
2023/05/21 04:15:01;;;;;;;86.07;78.05;;;;;;;12.98;100.00;100983.00;5027569;28;20049;-75
2023/05/21 04:17:28;;;;;;;85.32;77.43;;;;;;;13.05;100.00;100997.94;5013345;28;20053;-75
2023/05/21 04:19:55;;;;;;;84.40;76.85;;;;;;;13.32;100.00;100997.00;5024758;28;20049;-76
2023/05/21 04:22:25;;;;;;;90.07;82.07;;;;;;;13.44;100.00;100997.91;5024525;28;20054;-76
2023/05/21 04:24:53;;;;;;;91.85;83.35;;;;;;;13.28;100.00;100988.56;5018232;28;20131;-76
2023/05/21 04:27:22;;;;;;;87.90;79.90;;;;;;;13.56;100.00;100998.03;5021635;28;20045;-75
2023/05/21 04:29:49;;;;;;;93.03;83.95;;;;;;;13.73;100.00;100994.56;5022166;28;20045;-75
2023/05/21 04:32:17;;;;;;;94.53;86.18;;;;;;;13.90;100.00;100994.00;5021956;28;20046;-74
2023/05/21 04:34:44;;;;;;;88.88;80.90;;;;;;;13.96;100.00;100995.78;5021033;28;20132;-76
2023/05/21 04:37:11;;;;;;;92.40;84.45;;;;;;;13.82;100.00;101000.44;5020266;28;20058;-75
2023/05/21 04:39:39;;;;;;;90.80;82.40;;;;;;;13.66;100.00;101004.47;5018725;28;20445;-74
2023/05/21 04:42:09;;;;;;;86.05;77.95;;;;;;;13.77;100.00;101002.97;5021768;28;20133;-75
2023/05/21 04:44:36;;;;;;;94.40;85.50;;;;;;;13.97;100.00;100997.41;5019052;28;20103;-75
2023/05/21 04:47:03;;;;;;;90.32;81.82;;;;;;;14.18;100.00;100990.81;5012177;28;20058;-75
2023/05/21 04:49:34;;;;;;;88.97;81.20;;;;;;;14.20;100.00;100989.56;5019564;28;20498;-75
2023/05/21 04:52:01;;;;;;;85.57;78.25;;;;;;;14.26;100.00;100987.03;5020134;28;20054;-75
2023/05/21 04:54:28;;;;;;;96.85;88.50;;;;;;;14.40;100.00;100981.31;5021660;28;20048;-75
2023/05/21 04:56:56;;;;;;;87.68;79.75;;;;;;;14.76;100.00;100989.50;5021391;28;20057;-74
2023/05/21 05:10:09;;;;;;;95.28;87.53;;;;;;;15.61;100.00;100978.50;5085916;27;20393;-84
2023/05/21 05:12:37;;;;;;;93.05;85.15;;;;;;;15.64;100.00;100974.53;5062658;28;20048;-85
2023/05/21 05:15:05;;;;;;;94.38;86.22;;;;;;;15.73;100.00;100970.50;5069471;28;20445;-85
2023/05/21 05:17:33;;;;;;;88.50;81.05;;;;;;;15.80;100.00;100973.88;5052651;28;20581;-82
2023/05/21 05:20:00;;;;;;;90.30;82.80;;;;;;;16.07;100.00;100968.00;5060317;28;20056;-82
2023/05/21 05:22:26;;;;;;;97.80;89.57;;;;;;;16.35;100.00;100965.38;5066313;28;20047;-82
2023/05/21 05:24:53;;;;;;;91.53;83.88;;;;;;;16.41;100.00;100964.44;5065346;28;20049;-83
2023/05/21 05:27:22;;;;;;;87.28;80.18;;;;;;;16.43;100.00;100962.34;5082988;28;20418;-83
2023/05/21 05:29:49;;;;;;;83.75;76.97;;;;;;;16.65;100.00;100969.72;5073053;28;20057;-83
2023/05/21 05:32:15;;;;;;;82.18;75.13;;;;;;;16.79;100.00;100964.88;5058897;28;20311;-82
2023/05/21 05:34:43;;;;;;;86.95;79.85;;;;;;;16.65;100.00;100959.00;5068840;28;20052;-83
2023/05/21 05:37:10;;;;;;;85.03;77.65;;;;;;;16.74;100.00;100968.28;5059504;28;20052;-82
2023/05/21 05:39:37;;;;;;;83.15;75.82;;;;;;;16.94;100.00;100967.84;5072894;28;20438;-83
2023/05/21 05:42:04;;;;;;;48.17;44.10;;;;;;;17.80;100.00;100960.34;5056781;28;20046;-83
2023/05/21 05:44:33;;;;;;;52.05;47.00;;;;;;;18.01;100.00;100960.63;5070992;28;20053;-82
2023/05/21 05:47:00;;;;;;;46.17;41.97;;;;;;;18.15;100.00;100956.47;5060680;28;20053;-83
2023/05/21 05:49:26;;;;;;;40.17;36.35;;;;;;;18.04;100.00;100944.81;5068612;28;20056;-83
2023/05/21 05:51:53;;;;;;;39.17;35.60;;;;;;;18.43;100.00;100952.78;5060671;28;20049;-82
2023/05/21 05:54:21;;;;;;;41.50;37.60;;;;;;;18.48;100.00;100949.34;5064751;28;20060;-82
2023/05/21 05:56:47;;;;;;;44.17;39.90;;;;;;;18.55;100.00;100949.97;5068245;28;20055;-82
2023/05/21 05:59:15;;;;;;;42.85;38.80;;;;;;;18.57;100.00;100947.81;5068819;28;20502;-83
2023/05/21 06:01:43;;;;;;;38.83;35.17;;;;;;;18.62;100.00;100950.56;5056876;28;20049;-82
2023/05/21 06:04:10;;;;;;;40.03;36.63;;;;;;;18.73;100.00;100951.53;5062749;28;20444;-82
2023/05/21 06:06:37;;;;;;;39.28;35.58;;;;;;;19.07;100.00;100943.22;5064047;28;20053;-82
2023/05/21 06:09:04;;;;;;;38.88;35.20;;;;;;;19.04;100.00;100947.22;5068650;28;20053;-82
2023/05/21 06:11:31;;;;;;;39.47;35.95;;;;;;;18.86;100.00;100948.41;5042778;28;20060;-82
2023/05/21 06:13:59;;;;;;;39.75;36.45;;;;;;;19.05;100.00;100954.22;5042424;28;20429;-83
2023/05/21 06:16:26;;;;;;;40.70;36.83;;;;;;;19.10;100.00;100954.28;5050691;28;20053;-82
2023/05/21 06:18:55;;;;;;;40.33;36.78;;;;;;;19.12;100.00;100954.00;5047234;28;20056;-82
2023/05/21 06:21:21;;;;;;;43.47;39.65;;;;;;;19.30;100.00;100940.13;5046650;28;20410;-82
2023/05/21 06:23:48;;;;;;;36.65;33.35;;;;;;;19.15;100.00;100951.63;5052527;28;20056;-82
2023/05/21 06:26:17;;;;;;;37.28;34.22;;;;;;;19.33;100.00;100949.59;5051094;28;20051;-83
2023/05/21 06:28:44;;;;;;;34.95;31.77;;;;;;;19.24;100.00;100943.84;5050495;28;20140;-83
2023/05/21 06:31:12;;;;;;;36.03;32.83;;;;;;;19.26;100.00;100947.13;5042166;28;20046;-83
2023/05/21 06:33:39;;;;;;;33.58;30.50;;;;;;;19.05;100.00;100938.06;5044399;28;20050;-83
2023/05/21 06:36:08;;;;;;;33.22;29.88;;;;;;;19.29;100.00;100937.72;5047998;28;20124;-82
2023/05/21 06:38:35;;;;;;;33.05;30.00;;;;;;;19.60;100.00;100947.59;5046538;28;20829;-83
2023/05/21 06:41:02;;;;;;;31.85;28.95;;;;;;;19.58;100.00;100943.56;5065326;28;20107;-83
2023/05/21 06:43:29;;;;;;;33.28;30.38;;;;;;;19.60;100.00;100934.13;5061482;28;20044;-83
2023/05/21 06:45:56;;;;;;;33.08;30.23;;;;;;;19.42;100.00;100929.97;5044355;28;20048;-83
2023/05/21 06:48:23;;;;;;;33.15;29.98;;;;;;;19.67;100.00;100932.06;5047688;28;20049;-83
2023/05/21 06:50:50;;;;;;;34.30;31.13;;;;;;;19.61;100.00;100927.69;5045686;28;20045;-83
2023/05/21 06:53:18;;;;;;;33.35;30.02;;;;;;;19.67;100.00;100929.38;5049450;28;20051;-82
2023/05/21 06:55:45;;;;;;;32.47;29.48;;;;;;;19.79;100.00;100926.47;5043456;28;20517;-82
2023/05/21 06:58:12;;;;;;;32.97;30.15;;;;;;;19.89;100.00;100917.63;5058888;28;20568;-82
2023/05/21 07:00:39;;;;;;;33.85;30.85;;;;;;;19.97;100.00;100930.59;5068447;28;20075;-82
2023/05/21 07:03:06;;;;;;;30.25;27.55;;;;;;;19.94;100.00;100931.13;5047963;28;20071;-76
2023/05/21 07:05:33;;;;;;;30.85;27.90;;;;;;;20.00;100.00;100927.38;5047262;28;20529;-76
2023/05/21 07:08:00;;;;;;;30.40;27.67;;;;;;;20.13;100.00;100920.69;5046089;28;20054;-76
2023/05/21 07:10:28;;;;;;;28.58;25.85;;;;;;;19.81;100.00;100927.00;5057630;28;20040;-76
2023/05/21 07:12:55;;;;;;;30.13;27.38;;;;;;;19.98;100.00;100928.72;5041334;28;20056;-76
2023/05/21 07:15:22;;;;;;;30.73;27.70;;;;;;;20.27;100.00;100923.66;5057236;28;20090;-76
2023/05/21 07:17:49;;;;;;;32.40;29.70;;;;;;;20.36;100.00;100908.59;5048001;28;20513;-76
2023/05/21 07:20:16;;;;;;;33.95;30.90;;;;;;;20.83;100.00;100914.91;5047255;28;20053;-76
2023/05/21 07:22:44;;;;;;;31.95;28.80;;;;;;;20.63;100.00;100910.28;5043118;28;20053;-76
2023/05/21 07:25:10;;;;;;;34.60;31.30;;;;;;;21.12;100.00;100902.50;5051267;28;20049;-77
2023/05/21 07:27:39;;;;;;;37.75;28.15;;;;;;;21.04;100.00;100903.84;5053830;28;20053;-76
2023/05/21 07:30:07;;;;;;;29.52;26.92;;;;;;;20.68;100.00;100902.22;5043299;28;20057;-76
2023/05/21 07:32:34;;;;;;;27.80;25.58;;;;;;;20.61;100.00;100905.19;5044343;28;20437;-76
2023/05/21 07:35:01;;;;;;;31.00;28.38;;;;;;;21.02;100.00;100902.47;5045790;28;20490;-76
2023/05/21 07:37:28;;;;;;;30.50;27.45;;;;;;;21.24;100.00;100903.00;5054819;28;20471;-76
2023/05/21 07:39:57;;;;;;;27.65;25.25;;;;;;;20.25;100.00;100894.28;5041334;28;20529;-76
2023/05/21 07:42:24;;;;;;;30.33;27.83;;;;;;;21.00;100.00;100891.16;5054349;28;20056;-76
2023/05/21 07:44:53;;;;;;;29.52;26.92;;;;;;;20.84;100.00;100897.63;5049256;28;20056;-76
2023/05/21 07:47:20;;;;;;;28.23;25.60;;;;;;;20.99;100.00;100889.53;5052396;28;20435;-76
2023/05/21 07:49:47;;;;;;;28.23;25.73;;;;;;;20.71;100.00;100891.69;5048684;28;20045;-76
2023/05/21 07:52:14;;;;;;;29.02;26.52;;;;;;;21.10;100.00;100893.84;5052872;28;20057;-76
2023/05/21 07:54:41;;;;;;;29.98;27.05;;;;;;;21.07;100.00;100882.78;5041700;28;20414;-76
2023/05/21 07:57:07;;;;;;;29.63;26.77;;;;;;;21.42;100.00;100888.16;5043761;28;20056;-76
2023/05/21 07:59:34;;;;;;;29.35;26.55;;;;;;;21.42;100.00;100885.44;5059807;28;20048;-76
2023/05/21 08:02:03;;;;;;;26.92;24.63;;;;;;;20.25;100.00;100882.69;5042660;28;20063;-76
2023/05/21 08:04:30;;;;;;;26.27;23.88;;;;;;;20.36;100.00;100887.00;5047088;28;20060;-76
2023/05/21 08:06:57;;;;;;;27.80;25.35;;;;;;;21.05;100.00;100889.22;5054068;28;20525;-76
2023/05/21 08:09:24;;;;;;;28.95;26.42;;;;;;;21.65;100.00;100885.91;5040454;28;20415;-76
2023/05/21 08:11:51;;;;;;;26.75;24.08;;;;;;;21.75;100.00;100877.75;5048300;28;20525;-76
2023/05/21 08:14:18;;;;;;;26.33;23.88;;;;;;;21.76;100.00;100884.78;5043233;28;20469;-76
2023/05/21 08:16:45;;;;;;;26.02;23.75;;;;;;;22.25;100.00;100884.03;5051480;28;20056;-76
2023/05/21 08:19:13;;;;;;;26.65;24.33;;;;;;;21.60;100.00;100880.50;5046123;28;20159;-76
2023/05/21 08:21:40;;;;;;;27.10;24.58;;;;;;;21.68;100.00;100882.66;5050267;28;20059;-76
2023/05/21 08:24:07;;;;;;;27.10;24.60;;;;;;;21.05;100.00;100883.03;5043604;28;20041;-75
2023/05/21 08:26:35;;;;;;;26.35;24.02;;;;;;;21.88;100.00;100882.56;5050761;28;20056;-75
2023/05/21 08:29:02;;;;;;;25.40;23.17;;;;;;;22.72;100.00;100876.38;5051524;28;20040;-76
2023/05/21 08:31:29;;;;;;;25.90;23.40;;;;;;;22.41;100.00;100885.53;5040944;28;20045;-76
2023/05/21 08:33:56;;;;;;;26.85;24.38;;;;;;;23.05;100.00;100886.41;5048580;28;20058;-76
2023/05/21 08:36:25;;;;;;;25.85;23.58;;;;;;;22.79;100.00;100882.31;5043411;28;20052;-76
2023/05/21 08:38:51;;;;;;;24.98;22.98;;;;;;;22.48;100.00;100884.41;5048054;28;20045;-76
2023/05/21 08:41:22;;;;;;;24.70;22.35;;;;;;;22.76;100.00;100885.56;5042910;28;20049;-76
2023/05/21 08:43:56;;;;;;;25.88;23.77;;;;;;;22.37;100.00;100881.00;5051575;28;20068;-76
2023/05/21 08:46:24;;;;;;;28.23;25.58;;;;;;;21.74;100.00;100892.34;5045126;28;20077;-76
2023/05/21 08:48:53;;;;;;;25.02;22.67;;;;;;;22.27;100.00;100881.03;5044044;28;20084;-82
2023/05/21 08:51:21;;;;;;;24.33;22.35;;;;;;;22.71;100.00;100881.00;5051642;28;20051;-82
2023/05/21 08:53:50;;;;;;;24.13;22.13;;;;;;;22.77;100.00;100877.16;5046372;28;20053;-76
2023/05/21 08:56:17;;;;;;;24.33;22.05;;;;;;;23.50;100.00;100873.47;5048145;28;20056;-82
2023/05/21 08:58:46;;;;;;;23.88;21.67;;;;;;;22.61;100.00;100870.25;5046264;28;20056;-85
2023/05/21 09:01:14;;;;;;;25.40;23.10;;;;;;;21.96;100.00;100879.28;5034791;28;20055;-76
2023/05/21 09:03:42;;;;;;;27.08;24.48;;;;;;;22.77;100.00;100879.88;5044737;28;20057;-82
2023/05/21 09:06:12;;;;;;;25.52;23.02;;;;;;;22.99;100.00;100881.34;5041381;28;20498;-76
2023/05/21 09:08:44;;;;;;;25.42;23.20;;;;;;;22.27;100.00;100867.50;5034841;28;20080;-83
2023/05/21 09:11:14;;;;;;;27.35;24.17;;;;;;;23.17;100.00;100877.09;5037124;28;20096;-81
2023/05/21 09:13:45;;;;;;;25.85;23.55;;;;;;;24.37;100.00;100875.09;5037789;28;20513;-76
2023/05/21 09:16:13;;;;;;;26.05;23.63;;;;;;;23.29;100.00;100874.81;5040781;28;20065;-82
2023/05/21 09:18:39;;;;;;;25.92;23.83;;;;;;;23.22;100.00;100887.91;5040826;28;20427;-83
2023/05/21 09:21:25;;;;;;;25.17;23.13;;;;;;;22.96;100.00;100879.19;5029658;28;20046;-83
2023/05/21 09:23:56;;;;;;;24.42;22.52;;;;;;;22.66;100.00;100875.63;5030204;28;20053;-82
2023/05/21 09:26:25;;;;;;;25.13;23.02;;;;;;;23.38;100.00;100883.13;5045365;28;20080;-76
2023/05/21 09:28:57;;;;;;;26.27;23.70;;;;;;;24.55;100.00;100876.19;5047947;28;20055;-82
2023/05/21 09:31:24;;;;;;;27.15;23.70;;;;;;;25.03;100.00;100875.16;5037361;28;20038;-81
2023/05/21 09:33:51;;;;;;;25.05;22.75;;;;;;;24.37;100.00;100872.38;5044698;28;20045;-82
2023/05/21 09:36:19;;;;;;;25.60;23.30;;;;;;;23.83;100.00;100862.03;5034963;28;20502;-82
2023/05/21 09:38:46;;;;;;;25.95;23.55;;;;;;;22.51;100.00;100875.72;5030096;28;20050;-82
2023/05/21 09:41:13;;;;;;;24.75;22.55;;;;;;;22.78;100.00;100865.22;5037526;28;20333;-82
2023/05/21 09:43:44;;;;;;;26.77;24.17;;;;;;;22.13;100.00;100870.81;5037867;28;20045;-82
2023/05/21 09:46:11;;;;;;;26.38;23.77;;;;;;;24.25;100.00;100865.78;5040985;28;20045;-82
2023/05/21 09:48:39;;;;;;;24.65;22.55;;;;;;;23.07;100.00;100857.16;5047757;28;20056;-82
2023/05/21 09:51:16;;;;;;;26.00;23.55;;;;;;;22.69;100.00;100855.28;5043008;28;20064;-82
2023/05/21 09:53:51;;;;;;;26.20;23.90;;;;;;;21.72;100.00;100868.31;5054488;28;20056;-82
2023/05/21 09:56:23;;;;;;;25.80;23.15;;;;;;;23.89;100.00;100856.22;5037241;28;20049;-82
2023/05/21 09:58:54;;;;;;;26.63;24.15;;;;;;;21.84;100.00;100869.88;5046568;28;20057;-82
2023/05/21 10:01:21;;;;;;;25.45;23.17;;;;;;;22.40;100.00;100858.78;5041735;28;20076;-76
2023/05/21 10:03:52;;;;;;;24.63;22.20;;;;;;;23.34;100.00;100866.63;5043322;28;20077;-76
2023/05/21 10:06:20;;;;;;;25.27;23.27;;;;;;;22.98;100.00;100864.28;5042118;28;20223;-77
2023/05/21 10:08:52;;;;;;;26.45;24.25;;;;;;;24.17;100.00;100861.81;5048067;28;20122;-82
2023/05/21 10:11:22;;;;;;;23.50;21.58;;;;;;;25.08;100.00;100865.00;5033497;28;20053;-82
2023/05/21 10:13:55;;;;;;;23.90;22.00;;;;;;;25.19;100.00;100864.81;5039344;28;20053;-82
2023/05/21 10:16:23;;;;;;;25.83;23.40;;;;;;;25.62;100.00;100869.97;5039754;28;20045;-77
2023/05/21 10:18:52;;;;;;;25.55;23.30;;;;;;;24.97;100.00;100869.00;5045914;28;20049;-77
2023/05/21 10:21:21;;;;;;;25.35;23.08;;;;;;;24.20;100.00;100867.44;5041787;28;20067;-76
2023/05/21 10:23:49;;;;;;;24.33;22.10;;;;;;;24.98;100.00;100864.34;5041857;28;20052;-77
2023/05/21 10:26:18;;;;;;;24.23;22.17;;;;;;;23.81;100.00;100861.50;5041886;28;20080;-77
2023/05/21 10:28:45;;;;;;;25.25;23.10;;;;;;;24.02;100.00;100857.41;5039223;28;20056;-77
2023/05/21 10:31:14;;;;;;;23.33;21.27;;;;;;;25.47;100.00;100861.00;5041746;28;20056;-76
2023/05/21 10:33:42;;;;;;;23.98;21.60;;;;;;;25.19;100.00;100873.78;5042578;28;20522;-77
2023/05/21 10:36:10;;;;;;;25.02;22.85;;;;;;;25.46;87.16;100867.56;5045566;28;20053;-77
2023/05/21 10:38:38;;;;;;;22.35;20.45;;;;;;;22.84;100.00;100858.72;5043482;28;20501;-77
2023/05/21 10:41:07;;;;;;;22.02;20.05;;;;;;;25.26;97.93;100862.50;5043615;28;20049;-76
2023/05/21 10:43:51;;;;;;;24.33;22.35;;;;;;;25.78;96.68;100865.81;5042901;28;20049;-77
2023/05/21 10:46:48;;;;;;;23.15;21.05;;;;;;;24.99;100.00;100871.38;5047277;28;20051;-83
2023/05/21 10:49:38;;;;;;;23.08;21.17;;;;;;;23.89;100.00;100864.38;5047235;28;20087;-83
2023/05/21 10:52:14;;;;;;;22.48;20.67;;;;;;;24.19;100.00;100862.34;5041840;28;20529;-83
2023/05/21 10:55:13;;;;;;;23.85;21.67;;;;;;;25.00;100.00;100859.44;5038501;28;20568;-83
2023/05/21 10:58:30;;;;;;;24.95;22.75;;;;;;;25.46;99.10;100853.97;5001629;28;20064;-77
2023/05/21 11:00:58;;;;;;;24.83;22.80;;;;;;;25.17;100.00;100851.53;5003297;28;20463;-77
2023/05/21 11:03:27;;;;;;;26.05;23.20;;;;;;;25.86;100.00;100842.56;5037803;28;20466;-77
2023/05/21 11:05:55;;;;;;;24.30;21.95;;;;;;;25.58;96.71;100840.66;5042983;28;20430;-77
2023/05/21 11:08:23;;;;;;;24.42;22.00;;;;;;;25.11;100.00;100839.09;5045502;28;20045;-77
2023/05/21 11:10:54;;;;;;;24.52;22.20;;;;;;;25.84;100.00;100829.28;5041792;28;20522;-77
2023/05/21 11:13:22;;;;;;;22.98;21.27;;;;;;;26.06;100.00;100836.69;5032359;28;20486;-77
2023/05/21 11:16:08;;;;;;;23.05;21.17;;;;;;;26.05;100.00;100824.16;5042000;28;20453;-77